sensor_id;sensor_type;location;lat;lon;timestamp;P1;durP1;ratioP1;P2;durP2;ratioP2
21979;SDS011;11154;48.558;9.234;2024-01-10T00:00:24;27.98;;;18.33;;
21979;SDS011;11154;48.558;9.234;2024-01-10T00:02:26;29.52;;;18.55;;
21979;SDS011;11154;48.558;9.234;2024-01-10T00:04:28;29.30;;;18.63;;
21979;SDS011;11154;48.558;9.234;2024-01-10T00:06:28;28.27;;;18.02;;
21979;SDS011;11154;48.558;9.234;2024-01-10T00:08:30;33.20;;;19.13;;
21979;SDS011;11154;48.558;9.234;2024-01-10T00:10:32;32.00;;;18.92;;
21979;SDS011;11154;48.558;9.234;2024-01-10T00:12:33;32.75;;;19.30;;
21979;SDS011;11154;48.558;9.234;2024-01-10T00:14:38;30.38;;;17.70;;
21979;SDS011;11154;48.558;9.234;2024-01-10T00:16:39;29.80;;;18.00;;
21979;SDS011;11154;48.558;9.234;2024-01-10T00:18:41;30.15;;;17.40;;
21979;SDS011;11154;48.558;9.234;2024-01-10T00:20:43;28.85;;;18.60;;
21979;SDS011;11154;48.558;9.234;2024-01-10T00:22:44;29.20;;;18.38;;
21979;SDS011;11154;48.558;9.234;2024-01-10T00:24:45;28.25;;;18.05;;
21979;SDS011;11154;48.558;9.234;2024-01-10T00:26:47;30.52;;;18.23;;
21979;SDS011;11154;48.558;9.234;2024-01-10T00:28:49;30.95;;;18.45;;
21979;SDS011;11154;48.558;9.234;2024-01-10T00:30:51;32.25;;;18.98;;
21979;SDS011;11154;48.558;9.234;2024-01-10T00:32:52;30.73;;;18.40;;
21979;SDS011;11154;48.558;9.234;2024-01-10T00:34:54;32.33;;;18.40;;
21979;SDS011;11154;48.558;9.234;2024-01-10T00:36:56;30.23;;;18.45;;
21979;SDS011;11154;48.558;9.234;2024-01-10T00:38:57;30.33;;;18.35;;
21979;SDS011;11154;48.558;9.234;2024-01-10T00:40:59;30.42;;;18.45;;
21979;SDS011;11154;48.558;9.234;2024-01-10T00:43:00;29.70;;;18.65;;
21979;SDS011;11154;48.558;9.234;2024-01-10T00:45:02;29.63;;;18.35;;
21979;SDS011;11154;48.558;9.234;2024-01-10T00:47:05;28.40;;;17.38;;
21979;SDS011;11154;48.558;9.234;2024-01-10T00:49:06;28.88;;;17.88;;
21979;SDS011;11154;48.558;9.234;2024-01-10T00:51:08;29.42;;;17.90;;
21979;SDS011;11154;48.558;9.234;2024-01-10T00:53:10;32.88;;;19.10;;
21979;SDS011;11154;48.558;9.234;2024-01-10T00:55:13;31.35;;;19.50;;
21979;SDS011;11154;48.558;9.234;2024-01-10T00:57:14;28.67;;;17.40;;
21979;SDS011;11154;48.558;9.234;2024-01-10T00:59:16;29.50;;;17.65;;
21979;SDS011;11154;48.558;9.234;2024-01-10T01:01:17;27.90;;;17.45;;
21979;SDS011;11154;48.558;9.234;2024-01-10T01:03:20;26.55;;;17.50;;
21979;SDS011;11154;48.558;9.234;2024-01-10T01:05:21;29.67;;;17.30;;
21979;SDS011;11154;48.558;9.234;2024-01-10T01:07:23;28.35;;;17.42;;
21979;SDS011;11154;48.558;9.234;2024-01-10T01:09:24;25.33;;;17.00;;
21979;SDS011;11154;48.558;9.234;2024-01-10T01:11:26;27.77;;;17.20;;
21979;SDS011;11154;48.558;9.234;2024-01-10T01:13:26;29.95;;;17.65;;
21979;SDS011;11154;48.558;9.234;2024-01-10T01:15:28;27.65;;;16.98;;
21979;SDS011;11154;48.558;9.234;2024-01-10T01:17:29;28.17;;;17.50;;
21979;SDS011;11154;48.558;9.234;2024-01-10T01:19:33;28.85;;;18.35;;
21979;SDS011;11154;48.558;9.234;2024-01-10T01:21:34;30.25;;;17.90;;
21979;SDS011;11154;48.558;9.234;2024-01-10T01:23:36;31.65;;;18.98;;
21979;SDS011;11154;48.558;9.234;2024-01-10T01:25:36;34.88;;;20.05;;
21979;SDS011;11154;48.558;9.234;2024-01-10T01:27:38;34.53;;;19.60;;
21979;SDS011;11154;48.558;9.234;2024-01-10T01:29:39;32.53;;;19.15;;
21979;SDS011;11154;48.558;9.234;2024-01-10T01:31:40;32.17;;;19.55;;
21979;SDS011;11154;48.558;9.234;2024-01-10T01:33:42;33.22;;;20.42;;
21979;SDS011;11154;48.558;9.234;2024-01-10T01:35:45;29.90;;;18.90;;
21979;SDS011;11154;48.558;9.234;2024-01-10T01:37:45;32.58;;;18.95;;
21979;SDS011;11154;48.558;9.234;2024-01-10T01:39:47;32.90;;;20.38;;
21979;SDS011;11154;48.558;9.234;2024-01-10T01:41:49;30.27;;;18.55;;
21979;SDS011;11154;48.558;9.234;2024-01-10T01:43:51;30.35;;;19.13;;
21979;SDS011;11154;48.558;9.234;2024-01-10T01:45:53;29.42;;;18.67;;
21979;SDS011;11154;48.558;9.234;2024-01-10T01:47:55;31.30;;;18.77;;
21979;SDS011;11154;48.558;9.234;2024-01-10T01:49:56;27.63;;;17.95;;
21979;SDS011;11154;48.558;9.234;2024-01-10T01:51:58;30.70;;;18.58;;
21979;SDS011;11154;48.558;9.234;2024-01-10T01:54:01;27.92;;;17.08;;
21979;SDS011;11154;48.558;9.234;2024-01-10T01:56:04;25.80;;;16.25;;
21979;SDS011;11154;48.558;9.234;2024-01-10T01:58:08;26.40;;;16.77;;
21979;SDS011;11154;48.558;9.234;2024-01-10T02:00:10;27.45;;;17.27;;
21979;SDS011;11154;48.558;9.234;2024-01-10T02:02:12;30.20;;;19.63;;
21979;SDS011;11154;48.558;9.234;2024-01-10T02:04:17;29.73;;;20.60;;
21979;SDS011;11154;48.558;9.234;2024-01-10T02:06:21;31.92;;;21.67;;
21979;SDS011;11154;48.558;9.234;2024-01-10T02:08:24;31.77;;;21.83;;
21979;SDS011;11154;48.558;9.234;2024-01-10T02:10:25;31.58;;;21.38;;
21979;SDS011;11154;48.558;9.234;2024-01-10T02:12:26;34.70;;;22.85;;
21979;SDS011;11154;48.558;9.234;2024-01-10T02:14:27;34.10;;;22.20;;
21979;SDS011;11154;48.558;9.234;2024-01-10T02:16:29;29.42;;;20.77;;
21979;SDS011;11154;48.558;9.234;2024-01-10T02:18:31;34.13;;;23.30;;
21979;SDS011;11154;48.558;9.234;2024-01-10T02:20:35;35.92;;;24.45;;
21979;SDS011;11154;48.558;9.234;2024-01-10T02:22:36;34.60;;;22.88;;
21979;SDS011;11154;48.558;9.234;2024-01-10T02:24:39;35.17;;;22.55;;
21979;SDS011;11154;48.558;9.234;2024-01-10T02:26:42;35.45;;;24.42;;
21979;SDS011;11154;48.558;9.234;2024-01-10T02:28:43;37.78;;;24.50;;
21979;SDS011;11154;48.558;9.234;2024-01-10T02:30:45;34.33;;;23.48;;
21979;SDS011;11154;48.558;9.234;2024-01-10T02:32:47;32.85;;;23.02;;
21979;SDS011;11154;48.558;9.234;2024-01-10T02:34:49;33.55;;;21.92;;
21979;SDS011;11154;48.558;9.234;2024-01-10T02:36:49;34.28;;;21.38;;
21979;SDS011;11154;48.558;9.234;2024-01-10T02:38:51;34.25;;;21.88;;
21979;SDS011;11154;48.558;9.234;2024-01-10T02:40:52;31.23;;;21.63;;
21979;SDS011;11154;48.558;9.234;2024-01-10T02:42:57;31.08;;;22.27;;
21979;SDS011;11154;48.558;9.234;2024-01-10T02:44:58;32.13;;;21.17;;
21979;SDS011;11154;48.558;9.234;2024-01-10T02:46:59;34.55;;;21.60;;
21979;SDS011;11154;48.558;9.234;2024-01-10T02:49:01;32.28;;;21.40;;
21979;SDS011;11154;48.558;9.234;2024-01-10T02:51:03;31.20;;;21.80;;
21979;SDS011;11154;48.558;9.234;2024-01-10T02:53:04;33.10;;;21.40;;
21979;SDS011;11154;48.558;9.234;2024-01-10T02:55:05;29.88;;;20.10;;
21979;SDS011;11154;48.558;9.234;2024-01-10T02:57:07;34.10;;;21.17;;
21979;SDS011;11154;48.558;9.234;2024-01-10T02:59:10;30.55;;;21.23;;
21979;SDS011;11154;48.558;9.234;2024-01-10T03:01:13;31.08;;;20.17;;
21979;SDS011;11154;48.558;9.234;2024-01-10T03:03:15;33.28;;;21.45;;
21979;SDS011;11154;48.558;9.234;2024-01-10T03:05:17;30.25;;;20.20;;
21979;SDS011;11154;48.558;9.234;2024-01-10T03:07:18;31.90;;;21.20;;
21979;SDS011;11154;48.558;9.234;2024-01-10T03:09:20;32.13;;;21.80;;
21979;SDS011;11154;48.558;9.234;2024-01-10T03:11:21;35.40;;;22.48;;
21979;SDS011;11154;48.558;9.234;2024-01-10T03:13:23;31.27;;;20.27;;
21979;SDS011;11154;48.558;9.234;2024-01-10T03:15:25;29.67;;;21.13;;
21979;SDS011;11154;48.558;9.234;2024-01-10T03:17:27;31.20;;;20.85;;
21979;SDS011;11154;48.558;9.234;2024-01-10T03:19:28;34.47;;;22.15;;
21979;SDS011;11154;48.558;9.234;2024-01-10T03:21:30;33.58;;;21.27;;
21979;SDS011;11154;48.558;9.234;2024-01-10T03:23:30;34.35;;;21.38;;
21979;SDS011;11154;48.558;9.234;2024-01-10T03:25:32;34.45;;;21.73;;
21979;SDS011;11154;48.558;9.234;2024-01-10T03:27:33;30.20;;;20.60;;
21979;SDS011;11154;48.558;9.234;2024-01-10T03:29:34;30.42;;;20.95;;
21979;SDS011;11154;48.558;9.234;2024-01-10T03:31:37;33.50;;;21.15;;
21979;SDS011;11154;48.558;9.234;2024-01-10T03:33:39;33.35;;;21.17;;
21979;SDS011;11154;48.558;9.234;2024-01-10T03:35:41;32.10;;;20.98;;
21979;SDS011;11154;48.558;9.234;2024-01-10T03:37:42;33.88;;;21.60;;
21979;SDS011;11154;48.558;9.234;2024-01-10T03:39:44;34.88;;;22.27;;
21979;SDS011;11154;48.558;9.234;2024-01-10T03:41:46;33.97;;;20.63;;
21979;SDS011;11154;48.558;9.234;2024-01-10T03:43:48;27.95;;;19.70;;
21979;SDS011;11154;48.558;9.234;2024-01-10T03:45:50;33.65;;;20.77;;
21979;SDS011;11154;48.558;9.234;2024-01-10T03:47:53;33.97;;;22.35;;
21979;SDS011;11154;48.558;9.234;2024-01-10T03:49:55;33.80;;;22.13;;
21979;SDS011;11154;48.558;9.234;2024-01-10T03:51:56;31.58;;;20.98;;
21979;SDS011;11154;48.558;9.234;2024-01-10T03:53:58;33.45;;;22.23;;
21979;SDS011;11154;48.558;9.234;2024-01-10T03:55:59;35.55;;;23.15;;
21979;SDS011;11154;48.558;9.234;2024-01-10T03:58:00;34.28;;;23.33;;
21979;SDS011;11154;48.558;9.234;2024-01-10T04:00:01;31.50;;;21.00;;
21979;SDS011;11154;48.558;9.234;2024-01-10T04:02:04;36.05;;;19.77;;
21979;SDS011;11154;48.558;9.234;2024-01-10T04:04:07;33.35;;;19.70;;
21979;SDS011;11154;48.558;9.234;2024-01-10T04:06:09;32.65;;;19.20;;
21979;SDS011;11154;48.558;9.234;2024-01-10T04:08:10;32.47;;;18.52;;
21979;SDS011;11154;48.558;9.234;2024-01-10T04:10:12;29.95;;;18.98;;
21979;SDS011;11154;48.558;9.234;2024-01-10T04:12:14;29.50;;;17.85;;
21979;SDS011;11154;48.558;9.234;2024-01-10T04:14:16;28.73;;;17.38;;
21979;SDS011;11154;48.558;9.234;2024-01-10T04:16:18;33.10;;;18.30;;
21979;SDS011;11154;48.558;9.234;2024-01-10T04:18:19;28.10;;;17.23;;
21979;SDS011;11154;48.558;9.234;2024-01-10T04:20:22;29.38;;;17.88;;
21979;SDS011;11154;48.558;9.234;2024-01-10T04:22:24;28.17;;;17.48;;
21979;SDS011;11154;48.558;9.234;2024-01-10T04:24:25;32.50;;;18.52;;
21979;SDS011;11154;48.558;9.234;2024-01-10T04:26:26;26.55;;;17.30;;
21979;SDS011;11154;48.558;9.234;2024-01-10T04:28:28;32.67;;;17.30;;
21979;SDS011;11154;48.558;9.234;2024-01-10T04:30:29;28.77;;;17.75;;
21979;SDS011;11154;48.558;9.234;2024-01-10T04:32:31;28.02;;;17.77;;
21979;SDS011;11154;48.558;9.234;2024-01-10T04:34:32;29.77;;;18.02;;
21979;SDS011;11154;48.558;9.234;2024-01-10T04:36:36;27.17;;;17.38;;
21979;SDS011;11154;48.558;9.234;2024-01-10T04:38:38;28.25;;;17.02;;
21979;SDS011;11154;48.558;9.234;2024-01-10T04:40:39;30.35;;;17.60;;
21979;SDS011;11154;48.558;9.234;2024-01-10T04:42:41;29.33;;;17.08;;
21979;SDS011;11154;48.558;9.234;2024-01-10T04:44:41;30.02;;;17.83;;
21979;SDS011;11154;48.558;9.234;2024-01-10T04:46:43;27.60;;;17.30;;
21979;SDS011;11154;48.558;9.234;2024-01-10T04:48:44;25.90;;;16.90;;
21979;SDS011;11154;48.558;9.234;2024-01-10T04:50:45;28.95;;;16.58;;
21979;SDS011;11154;48.558;9.234;2024-01-10T04:52:48;28.90;;;16.98;;
21979;SDS011;11154;48.558;9.234;2024-01-10T04:54:50;29.77;;;17.73;;
21979;SDS011;11154;48.558;9.234;2024-01-10T04:56:51;28.92;;;17.08;;
21979;SDS011;11154;48.558;9.234;2024-01-10T04:58:53;27.35;;;16.60;;
21979;SDS011;11154;48.558;9.234;2024-01-10T05:00:54;28.30;;;16.67;;
21979;SDS011;11154;48.558;9.234;2024-01-10T05:02:56;27.92;;;16.38;;
21979;SDS011;11154;48.558;9.234;2024-01-10T05:04:58;27.02;;;16.58;;
21979;SDS011;11154;48.558;9.234;2024-01-10T05:07:00;26.52;;;15.75;;
21979;SDS011;11154;48.558;9.234;2024-01-10T05:09:03;28.50;;;15.98;;
21979;SDS011;11154;48.558;9.234;2024-01-10T05:11:04;27.48;;;16.02;;
21979;SDS011;11154;48.558;9.234;2024-01-10T05:13:06;24.92;;;15.60;;
21979;SDS011;11154;48.558;9.234;2024-01-10T05:15:08;27.05;;;16.70;;
21979;SDS011;11154;48.558;9.234;2024-01-10T05:17:10;25.35;;;16.17;;
21979;SDS011;11154;48.558;9.234;2024-01-10T05:19:11;26.55;;;14.85;;
21979;SDS011;11154;48.558;9.234;2024-01-10T05:21:13;26.02;;;16.13;;
21979;SDS011;11154;48.558;9.234;2024-01-10T05:23:15;26.92;;;15.45;;
21979;SDS011;11154;48.558;9.234;2024-01-10T05:25:18;24.55;;;15.57;;
21979;SDS011;11154;48.558;9.234;2024-01-10T05:27:19;28.83;;;16.27;;
21979;SDS011;11154;48.558;9.234;2024-01-10T05:29:21;26.10;;;14.93;;
21979;SDS011;11154;48.558;9.234;2024-01-10T05:31:24;29.40;;;16.95;;
21979;SDS011;11154;48.558;9.234;2024-01-10T05:33:25;28.55;;;16.17;;
21979;SDS011;11154;48.558;9.234;2024-01-10T05:35:27;24.33;;;15.20;;
21979;SDS011;11154;48.558;9.234;2024-01-10T05:37:29;27.65;;;15.60;;
21979;SDS011;11154;48.558;9.234;2024-01-10T05:39:30;25.52;;;15.73;;
21979;SDS011;11154;48.558;9.234;2024-01-10T05:41:33;25.02;;;15.55;;
21979;SDS011;11154;48.558;9.234;2024-01-10T05:43:35;26.95;;;15.93;;
21979;SDS011;11154;48.558;9.234;2024-01-10T05:45:35;29.20;;;16.75;;
21979;SDS011;11154;48.558;9.234;2024-01-10T05:47:37;27.45;;;15.55;;
21979;SDS011;11154;48.558;9.234;2024-01-10T05:49:38;26.33;;;16.38;;
21979;SDS011;11154;48.558;9.234;2024-01-10T05:51:40;28.45;;;16.05;;
21979;SDS011;11154;48.558;9.234;2024-01-10T05:53:41;29.15;;;17.08;;
21979;SDS011;11154;48.558;9.234;2024-01-10T05:55:42;27.45;;;16.20;;
21979;SDS011;11154;48.558;9.234;2024-01-10T05:57:46;26.67;;;16.45;;
21979;SDS011;11154;48.558;9.234;2024-01-10T05:59:47;30.13;;;17.75;;
21979;SDS011;11154;48.558;9.234;2024-01-10T06:01:49;31.63;;;18.08;;
21979;SDS011;11154;48.558;9.234;2024-01-10T06:03:50;30.50;;;17.75;;
21979;SDS011;11154;48.558;9.234;2024-01-10T06:05:52;29.95;;;17.52;;
21979;SDS011;11154;48.558;9.234;2024-01-10T06:07:54;27.63;;;17.15;;
21979;SDS011;11154;48.558;9.234;2024-01-10T06:09:55;28.33;;;17.25;;
21979;SDS011;11154;48.558;9.234;2024-01-10T06:11:56;26.40;;;16.25;;
21979;SDS011;11154;48.558;9.234;2024-01-10T06:13:59;30.38;;;17.77;;
21979;SDS011;11154;48.558;9.234;2024-01-10T06:16:00;27.25;;;16.65;;
21979;SDS011;11154;48.558;9.234;2024-01-10T06:18:02;26.85;;;17.38;;
21979;SDS011;11154;48.558;9.234;2024-01-10T06:20:04;27.85;;;16.55;;
21979;SDS011;11154;48.558;9.234;2024-01-10T06:22:07;26.50;;;16.25;;
21979;SDS011;11154;48.558;9.234;2024-01-10T06:24:08;28.40;;;17.65;;
21979;SDS011;11154;48.558;9.234;2024-01-10T06:26:10;28.02;;;17.92;;
21979;SDS011;11154;48.558;9.234;2024-01-10T06:28:10;28.15;;;16.80;;
21979;SDS011;11154;48.558;9.234;2024-01-10T06:30:14;26.77;;;16.70;;
21979;SDS011;11154;48.558;9.234;2024-01-10T06:32:15;27.95;;;17.02;;
21979;SDS011;11154;48.558;9.234;2024-01-10T06:34:17;26.38;;;15.80;;
21979;SDS011;11154;48.558;9.234;2024-01-10T06:36:19;26.52;;;16.35;;
21979;SDS011;11154;48.558;9.234;2024-01-10T06:38:20;27.52;;;17.13;;
21979;SDS011;11154;48.558;9.234;2024-01-10T06:40:22;28.17;;;16.75;;
21979;SDS011;11154;48.558;9.234;2024-01-10T06:42:24;27.85;;;17.20;;
21979;SDS011;11154;48.558;9.234;2024-01-10T06:44:26;27.08;;;16.90;;
21979;SDS011;11154;48.558;9.234;2024-01-10T06:46:30;26.63;;;17.17;;
21979;SDS011;11154;48.558;9.234;2024-01-10T06:48:33;29.38;;;18.23;;
21979;SDS011;11154;48.558;9.234;2024-01-10T06:50:35;25.67;;;16.70;;
21979;SDS011;11154;48.558;9.234;2024-01-10T06:52:37;30.65;;;17.75;;
21979;SDS011;11154;48.558;9.234;2024-01-10T06:54:39;25.48;;;16.05;;
21979;SDS011;11154;48.558;9.234;2024-01-10T06:56:39;27.45;;;16.80;;
21979;SDS011;11154;48.558;9.234;2024-01-10T06:58:41;29.20;;;17.27;;
21979;SDS011;11154;48.558;9.234;2024-01-10T07:00:44;29.17;;;16.88;;
21979;SDS011;11154;48.558;9.234;2024-01-10T07:02:47;28.98;;;17.42;;
21979;SDS011;11154;48.558;9.234;2024-01-10T07:04:49;28.63;;;17.40;;
21979;SDS011;11154;48.558;9.234;2024-01-10T07:06:51;28.40;;;17.77;;
21979;SDS011;11154;48.558;9.234;2024-01-10T07:08:52;34.08;;;19.10;;
21979;SDS011;11154;48.558;9.234;2024-01-10T07:10:54;49.70;;;30.05;;
21979;SDS011;11154;48.558;9.234;2024-01-10T07:12:57;32.35;;;19.50;;
21979;SDS011;11154;48.558;9.234;2024-01-10T07:14:58;30.80;;;17.63;;
21979;SDS011;11154;48.558;9.234;2024-01-10T07:17:00;29.48;;;18.17;;
21979;SDS011;11154;48.558;9.234;2024-01-10T07:19:03;33.53;;;17.90;;
21979;SDS011;11154;48.558;9.234;2024-01-10T07:21:04;31.05;;;18.48;;
21979;SDS011;11154;48.558;9.234;2024-01-10T07:23:06;26.80;;;16.33;;
21979;SDS011;11154;48.558;9.234;2024-01-10T07:25:07;27.05;;;17.50;;
21979;SDS011;11154;48.558;9.234;2024-01-10T07:27:09;37.13;;;21.50;;
21979;SDS011;11154;48.558;9.234;2024-01-10T07:29:12;34.83;;;19.83;;
21979;SDS011;11154;48.558;9.234;2024-01-10T07:31:14;28.33;;;17.65;;
21979;SDS011;11154;48.558;9.234;2024-01-10T07:33:16;31.58;;;18.63;;
21979;SDS011;11154;48.558;9.234;2024-01-10T07:35:19;28.13;;;17.48;;
21979;SDS011;11154;48.558;9.234;2024-01-10T07:37:21;28.50;;;18.00;;
21979;SDS011;11154;48.558;9.234;2024-01-10T07:39:23;30.35;;;18.50;;
21979;SDS011;11154;48.558;9.234;2024-01-10T07:41:24;31.77;;;19.67;;
21979;SDS011;11154;48.558;9.234;2024-01-10T07:43:26;32.08;;;19.38;;
21979;SDS011;11154;48.558;9.234;2024-01-10T07:45:28;31.17;;;19.35;;
21979;SDS011;11154;48.558;9.234;2024-01-10T07:47:30;33.72;;;20.15;;
21979;SDS011;11154;48.558;9.234;2024-01-10T07:49:32;28.55;;;18.00;;
21979;SDS011;11154;48.558;9.234;2024-01-10T07:51:35;45.47;;;26.90;;
21979;SDS011;11154;48.558;9.234;2024-01-10T07:53:35;31.02;;;20.83;;
21979;SDS011;11154;48.558;9.234;2024-01-10T07:55:37;30.30;;;19.40;;
21979;SDS011;11154;48.558;9.234;2024-01-10T07:57:39;28.60;;;18.38;;
21979;SDS011;11154;48.558;9.234;2024-01-10T07:59:42;30.85;;;18.90;;
21979;SDS011;11154;48.558;9.234;2024-01-10T08:01:44;30.80;;;18.65;;
21979;SDS011;11154;48.558;9.234;2024-01-10T08:03:56;29.20;;;17.95;;
21979;SDS011;11154;48.558;9.234;2024-01-10T08:05:58;27.90;;;18.08;;
21979;SDS011;11154;48.558;9.234;2024-01-10T08:08:01;28.10;;;18.90;;
21979;SDS011;11154;48.558;9.234;2024-01-10T08:10:03;31.55;;;18.73;;
21979;SDS011;11154;48.558;9.234;2024-01-10T08:12:05;29.38;;;17.90;;
21979;SDS011;11154;48.558;9.234;2024-01-10T08:14:07;33.20;;;19.13;;
21979;SDS011;11154;48.558;9.234;2024-01-10T08:16:08;26.65;;;18.10;;
21979;SDS011;11154;48.558;9.234;2024-01-10T08:18:09;30.52;;;19.10;;
21979;SDS011;11154;48.558;9.234;2024-01-10T08:20:11;31.40;;;19.15;;
21979;SDS011;11154;48.558;9.234;2024-01-10T08:22:15;28.40;;;18.48;;
21979;SDS011;11154;48.558;9.234;2024-01-10T08:24:18;30.00;;;17.15;;
21979;SDS011;11154;48.558;9.234;2024-01-10T08:26:20;35.53;;;20.25;;
21979;SDS011;11154;48.558;9.234;2024-01-10T08:28:21;30.88;;;19.58;;
21979;SDS011;11154;48.558;9.234;2024-01-10T08:30:22;29.00;;;18.65;;
21979;SDS011;11154;48.558;9.234;2024-01-10T08:32:24;27.17;;;18.05;;
21979;SDS011;11154;48.558;9.234;2024-01-10T08:34:26;32.55;;;18.98;;
21979;SDS011;11154;48.558;9.234;2024-01-10T08:36:27;29.27;;;18.95;;
21979;SDS011;11154;48.558;9.234;2024-01-10T08:38:29;33.03;;;19.83;;
21979;SDS011;11154;48.558;9.234;2024-01-10T08:40:31;31.30;;;20.25;;
21979;SDS011;11154;48.558;9.234;2024-01-10T08:42:33;28.02;;;18.73;;
21979;SDS011;11154;48.558;9.234;2024-01-10T08:44:33;29.65;;;20.20;;
21979;SDS011;11154;48.558;9.234;2024-01-10T08:46:35;40.40;;;22.33;;
21979;SDS011;11154;48.558;9.234;2024-01-10T08:48:35;39.05;;;24.25;;
21979;SDS011;11154;48.558;9.234;2024-01-10T08:50:37;41.20;;;25.73;;
21979;SDS011;11154;48.558;9.234;2024-01-10T08:52:39;35.65;;;21.63;;
21979;SDS011;11154;48.558;9.234;2024-01-10T08:54:40;29.17;;;19.20;;
21979;SDS011;11154;48.558;9.234;2024-01-10T08:56:43;30.42;;;18.95;;
21979;SDS011;11154;48.558;9.234;2024-01-10T08:58:45;30.48;;;19.95;;
21979;SDS011;11154;48.558;9.234;2024-01-10T09:00:47;26.50;;;17.45;;
21979;SDS011;11154;48.558;9.234;2024-01-10T09:02:48;30.70;;;19.88;;
21979;SDS011;11154;48.558;9.234;2024-01-10T09:04:50;40.00;;;24.15;;
21979;SDS011;11154;48.558;9.234;2024-01-10T09:06:51;49.03;;;26.75;;
21979;SDS011;11154;48.558;9.234;2024-01-10T09:08:52;124.63;;;59.03;;
21979;SDS011;11154;48.558;9.234;2024-01-10T09:10:54;133.25;;;61.38;;
21979;SDS011;11154;48.558;9.234;2024-01-10T09:12:57;52.10;;;29.58;;
21979;SDS011;11154;48.558;9.234;2024-01-10T09:15:00;70.72;;;40.67;;
21979;SDS011;11154;48.558;9.234;2024-01-10T09:17:00;70.45;;;42.47;;
21979;SDS011;11154;48.558;9.234;2024-01-10T09:19:04;38.85;;;23.42;;
21979;SDS011;11154;48.558;9.234;2024-01-10T09:21:05;33.70;;;20.67;;
21979;SDS011;11154;48.558;9.234;2024-01-10T09:23:07;31.77;;;20.40;;
21979;SDS011;11154;48.558;9.234;2024-01-10T09:25:10;32.22;;;20.20;;
21979;SDS011;11154;48.558;9.234;2024-01-10T09:27:12;31.52;;;20.13;;
21979;SDS011;11154;48.558;9.234;2024-01-10T09:29:14;32.58;;;21.40;;
21979;SDS011;11154;48.558;9.234;2024-01-10T09:31:16;31.98;;;21.15;;
21979;SDS011;11154;48.558;9.234;2024-01-10T09:33:17;31.80;;;20.67;;
21979;SDS011;11154;48.558;9.234;2024-01-10T09:35:19;41.25;;;22.52;;
21979;SDS011;11154;48.558;9.234;2024-01-10T09:37:20;32.95;;;20.98;;
21979;SDS011;11154;48.558;9.234;2024-01-10T09:39:21;36.83;;;25.45;;
21979;SDS011;11154;48.558;9.234;2024-01-10T09:41:23;31.10;;;20.00;;
21979;SDS011;11154;48.558;9.234;2024-01-10T09:43:29;28.27;;;18.52;;
21979;SDS011;11154;48.558;9.234;2024-01-10T09:45:32;31.50;;;19.98;;
21979;SDS011;11154;48.558;9.234;2024-01-10T09:47:36;28.02;;;19.35;;
21979;SDS011;11154;48.558;9.234;2024-01-10T09:49:42;32.33;;;19.73;;
21979;SDS011;11154;48.558;9.234;2024-01-10T09:51:46;31.10;;;20.75;;
21979;SDS011;11154;48.558;9.234;2024-01-10T09:53:49;34.10;;;21.65;;
21979;SDS011;11154;48.558;9.234;2024-01-10T09:55:54;34.63;;;20.67;;
21979;SDS011;11154;48.558;9.234;2024-01-10T09:57:57;32.47;;;22.17;;
21979;SDS011;11154;48.558;9.234;2024-01-10T09:59:59;32.90;;;20.88;;
21979;SDS011;11154;48.558;9.234;2024-01-10T10:02:04;32.25;;;20.65;;
21979;SDS011;11154;48.558;9.234;2024-01-10T10:04:06;34.55;;;20.85;;
21979;SDS011;11154;48.558;9.234;2024-01-10T10:06:10;34.63;;;20.13;;
21979;SDS011;11154;48.558;9.234;2024-01-10T10:08:12;33.08;;;21.88;;
21979;SDS011;11154;48.558;9.234;2024-01-10T10:10:21;31.25;;;20.52;;
21979;SDS011;11154;48.558;9.234;2024-01-10T10:12:26;32.13;;;19.75;;
21979;SDS011;11154;48.558;9.234;2024-01-10T10:14:43;38.60;;;22.45;;
21979;SDS011;11154;48.558;9.234;2024-01-10T10:16:44;31.05;;;19.85;;
21979;SDS011;11154;48.558;9.234;2024-01-10T10:18:47;31.30;;;20.92;;
21979;SDS011;11154;48.558;9.234;2024-01-10T10:25:15;32.45;;;20.23;;
21979;SDS011;11154;48.558;9.234;2024-01-10T10:27:16;31.35;;;20.90;;
21979;SDS011;11154;48.558;9.234;2024-01-10T10:29:17;31.75;;;20.85;;
21979;SDS011;11154;48.558;9.234;2024-01-10T10:31:18;30.10;;;19.90;;
21979;SDS011;11154;48.558;9.234;2024-01-10T10:33:21;28.33;;;19.30;;
21979;SDS011;11154;48.558;9.234;2024-01-10T10:35:23;32.35;;;20.02;;
21979;SDS011;11154;48.558;9.234;2024-01-10T10:37:25;30.20;;;19.80;;
21979;SDS011;11154;48.558;9.234;2024-01-10T10:39:25;32.50;;;19.85;;
21979;SDS011;11154;48.558;9.234;2024-01-10T10:41:27;29.80;;;19.75;;
21979;SDS011;11154;48.558;9.234;2024-01-10T10:43:34;32.85;;;19.83;;
21979;SDS011;11154;48.558;9.234;2024-01-10T10:45:37;30.67;;;19.95;;
21979;SDS011;11154;48.558;9.234;2024-01-10T10:47:38;35.22;;;19.95;;
21979;SDS011;11154;48.558;9.234;2024-01-10T10:49:47;31.23;;;19.70;;
21979;SDS011;11154;48.558;9.234;2024-01-10T10:51:55;31.02;;;19.27;;
21979;SDS011;11154;48.558;9.234;2024-01-10T10:53:59;28.92;;;19.25;;
21979;SDS011;11154;48.558;9.234;2024-01-10T10:56:02;29.73;;;18.27;;
21979;SDS011;11154;48.558;9.234;2024-01-10T10:58:04;30.50;;;19.27;;
21979;SDS011;11154;48.558;9.234;2024-01-10T11:00:07;47.00;;;26.98;;
21979;SDS011;11154;48.558;9.234;2024-01-10T11:02:10;62.55;;;36.13;;
21979;SDS011;11154;48.558;9.234;2024-01-10T11:04:12;44.42;;;27.63;;
21979;SDS011;11154;48.558;9.234;2024-01-10T11:06:15;33.28;;;21.08;;
21979;SDS011;11154;48.558;9.234;2024-01-10T11:08:20;30.17;;;19.42;;
21979;SDS011;11154;48.558;9.234;2024-01-10T11:10:28;27.35;;;17.85;;
21979;SDS011;11154;48.558;9.234;2024-01-10T11:12:38;29.55;;;18.33;;
21979;SDS011;11154;48.558;9.234;2024-01-10T11:15:06;24.52;;;15.45;;
21979;SDS011;11154;48.558;9.234;2024-01-10T11:17:26;22.27;;;15.50;;
21979;SDS011;11154;48.558;9.234;2024-01-10T11:19:52;21.58;;;14.25;;
21979;SDS011;11154;48.558;9.234;2024-01-10T11:22:08;25.45;;;16.35;;
21979;SDS011;11154;48.558;9.234;2024-01-10T11:24:20;27.17;;;16.67;;
21979;SDS011;11154;48.558;9.234;2024-01-10T11:26:22;22.17;;;14.68;;
21979;SDS011;11154;48.558;9.234;2024-01-10T11:28:24;39.65;;;25.65;;
21979;SDS011;11154;48.558;9.234;2024-01-10T11:30:33;26.30;;;15.25;;
21979;SDS011;11154;48.558;9.234;2024-01-10T11:32:36;19.58;;;11.80;;
21979;SDS011;11154;48.558;9.234;2024-01-10T11:34:38;21.42;;;14.18;;
21979;SDS011;11154;48.558;9.234;2024-01-10T11:39:11;30.33;;;17.63;;
21979;SDS011;11154;48.558;9.234;2024-01-10T11:41:19;23.73;;;15.50;;
21979;SDS011;11154;48.558;9.234;2024-01-10T11:43:21;23.98;;;15.38;;
21979;SDS011;11154;48.558;9.234;2024-01-10T11:45:35;20.95;;;14.57;;
21979;SDS011;11154;48.558;9.234;2024-01-10T11:47:38;23.08;;;14.40;;
21979;SDS011;11154;48.558;9.234;2024-01-10T11:49:41;44.83;;;27.50;;
21979;SDS011;11154;48.558;9.234;2024-01-10T11:51:55;26.10;;;17.25;;
21979;SDS011;11154;48.558;9.234;2024-01-10T11:53:57;22.00;;;13.10;;
21979;SDS011;11154;48.558;9.234;2024-01-10T11:55:59;22.15;;;12.13;;
21979;SDS011;11154;48.558;9.234;2024-01-10T11:58:12;20.80;;;13.15;;
21979;SDS011;11154;48.558;9.234;2024-01-10T12:00:14;23.20;;;11.90;;
21979;SDS011;11154;48.558;9.234;2024-01-10T12:02:16;20.65;;;12.70;;